Aviation Digital Data Service (ADDS)

Output produced by METARs form (0932 UTC 28 March 2020)
found at http://aviationweather.gov/metar/data/
 
METAR text: KDKB 280915Z AUTO 12010KT 4SM -RA SCT006 BKN060 OVC080 09/09 A2963 RMK AO2 LTG DSNT N P0002 T00910091
Conditions at: KDKB (DE KALB , IL, US) observed 0915 UTC 28 March 2020
Temperature: 9.1°C (48°F)
Dewpoint: 9.1°C (48°F) [RH = 100%]
Pressure (altimeter): 29.63 inches Hg (1003.5 mb)
Winds: from the ESE (120 degrees) at 12 MPH (10 knots; 5.1 m/s)
Visibility: 4 miles ( 6 km)
Ceiling: 6000 feet AGL
Clouds: scattered clouds at 600 feet AGL
broken clouds at 6000 feet AGL
overcast cloud deck at 8000 feet AGL
Weather: -RA  (light rain)